Time;durP1;ratioP1;P1;durP2;ratioP2;P2;SDS_P1;SDS_P2;PMS_P1;PMS_P2;Temp;Humidity;BMP_temperature;BMP_pressure;BME280_temperature;BME280_humidity;BME280_pressure;Samples;Min_cycle;Max_cycle;Signal;HPM_P1;HPM_P2
2023/06/18 00:01:59;;;;;;;42.63;32.63;;;18.10;99.90;;;;;;5035370;28;20183;-85
2023/06/18 00:04:26;;;;;;;41.47;33.07;;;18.10;99.90;;;;;;5035149;28;20722;-85
2023/06/18 00:06:54;;;;;;;41.27;31.80;;;18.00;99.90;;;;;;5033719;28;20227;-85
2023/06/18 00:09:22;;;;;;;43.73;33.73;;;18.00;99.90;;;;;;5017374;28;20199;-85
2023/06/18 00:11:50;;;;;;;43.77;32.30;;;18.10;99.90;;;;;;5033808;28;20187;-84
2023/06/18 00:14:18;;;;;;;38.80;31.30;;;18.00;99.90;;;;;;5033712;28;20255;-85
2023/06/18 00:16:45;;;;;;;40.03;30.30;;;18.00;99.90;;;;;;5033669;28;20270;-86
2023/06/18 00:19:13;;;;;;;38.70;29.87;;;17.90;99.90;;;;;;5033694;28;20199;-86
2023/06/18 00:21:40;;;;;;;38.33;30.50;;;17.90;99.90;;;;;;5034523;28;20211;-87
2023/06/18 00:24:07;;;;;;;37.23;30.00;;;17.90;99.90;;;;;;5033907;28;20203;-87
2023/06/18 00:26:34;;;;;;;38.47;28.83;;;18.00;99.90;;;;;;5017353;28;20216;-87
2023/06/18 00:29:01;;;;;;;36.57;29.73;;;17.80;99.90;;;;;;5017168;28;20644;-86
2023/06/18 00:31:28;;;;;;;37.00;28.30;;;17.90;99.90;;;;;;5017225;28;20265;-86
2023/06/18 00:33:55;;;;;;;33.47;26.90;;;17.90;99.90;;;;;;5033286;28;20683;-85
2023/06/18 00:36:26;;;;;;;35.60;26.43;;;17.90;99.90;;;;;;5033126;28;20242;-86
2023/06/18 00:38:53;;;;;;;36.37;27.27;;;17.90;99.90;;;;;;5017106;28;20195;-86
2023/06/18 00:41:24;;;;;;;33.67;26.50;;;17.80;99.90;;;;;;5033132;28;20250;-87
2023/06/18 00:43:50;;;;;;;34.87;26.93;;;17.80;99.90;;;;;;5033548;28;20187;-86
2023/06/18 00:46:17;;;;;;;35.37;26.57;;;17.70;99.90;;;;;;5033091;28;20227;-85
2023/06/18 00:48:45;;;;;;;31.47;24.87;;;17.70;99.90;;;;;;5000495;28;20230;-85
2023/06/18 00:51:16;;;;;;;36.27;27.03;;;17.80;99.90;;;;;;5033032;28;20229;-85
2023/06/18 00:53:44;;;;;;;34.17;25.83;;;17.80;99.90;;;;;;5033986;28;20288;-85
2023/06/18 00:56:12;;;;;;;33.37;26.43;;;17.80;99.90;;;;;;5017712;28;20250;-85
2023/06/18 00:58:39;;;;;;;33.70;25.63;;;17.90;99.90;;;;;;5034988;28;20281;-84
2023/06/18 01:01:10;;;;;;;30.57;24.77;;;18.00;99.90;;;;;;5032870;28;20223;-84
2023/06/18 01:03:37;;;;;;;33.53;25.97;;;18.00;99.90;;;;;;5035140;28;20175;-84
2023/06/18 01:06:06;;;;;;;34.93;26.13;;;18.00;99.90;;;;;;5018618;28;20216;-84
2023/06/18 01:08:34;;;;;;;31.33;24.07;;;18.10;99.90;;;;;;5018150;28;20242;-84
2023/06/18 01:11:04;;;;;;;34.00;25.10;;;17.90;99.90;;;;;;5034533;28;20216;-85
2023/06/18 01:13:33;;;;;;;29.63;24.50;;;17.90;99.90;;;;;;5016452;28;20269;-86
2023/06/18 01:16:04;;;;;;;32.07;25.57;;;17.90;99.90;;;;;;5032631;28;20566;-84
2023/06/18 01:18:35;;;;;;;28.60;23.70;;;17.80;99.90;;;;;;5032923;28;20192;-84
2023/06/18 01:21:06;;;;;;;33.70;26.03;;;17.80;99.90;;;;;;5016111;28;20574;-85
2023/06/18 01:23:50;;;;;;;31.80;25.23;;;17.80;99.90;;;;;;5033675;28;20172;-84
2023/06/18 01:26:20;;;;;;;31.27;24.07;;;17.80;99.90;;;;;;5015984;28;20246;-84
2023/06/18 01:28:51;;;;;;;30.90;24.20;;;17.80;99.90;;;;;;5032130;28;20291;-85
2023/06/18 01:31:21;;;;;;;31.77;23.87;;;17.80;99.90;;;;;;5033435;28;20215;-84
2023/06/18 01:33:53;;;;;;;30.00;23.47;;;17.80;99.90;;;;;;5031177;28;20219;-84
2023/06/18 01:36:37;;;;;;;29.43;22.83;;;17.90;99.90;;;;;;5016033;28;20303;-85
2023/06/18 01:39:38;;;;;;;28.23;22.33;;;17.90;99.90;;;;;;5032477;28;20196;-85
2023/06/18 01:42:18;;;;;;;29.93;23.17;;;17.90;99.90;;;;;;4991657;28;20204;-85
2023/06/18 01:45:02;;;;;;;30.10;22.40;;;17.90;99.90;;;;;;4975554;28;20581;-84
2023/06/18 01:47:30;;;;;;;28.90;22.77;;;18.00;99.90;;;;;;4975472;28;20205;-83
2023/06/18 01:50:00;;;;;;;30.67;24.20;;;17.90;99.90;;;;;;4975213;28;20344;-84
2023/06/18 01:52:31;;;;;;;29.50;23.90;;;18.00;99.90;;;;;;4974884;28;20201;-85
2023/06/18 01:55:01;;;;;;;28.53;23.27;;;18.00;99.90;;;;;;4975124;28;20658;-86
2023/06/18 01:57:28;;;;;;;27.57;22.63;;;17.90;99.90;;;;;;4991468;28;20617;-85
2023/06/18 01:59:56;;;;;;;26.57;21.27;;;18.00;99.90;;;;;;4991342;28;20225;-86
2023/06/18 02:02:22;;;;;;;27.87;21.50;;;18.00;99.90;;;;;;4975131;28;20291;-86
2023/06/18 02:04:50;;;;;;;28.83;22.17;;;18.00;99.90;;;;;;4974996;28;20221;-87
2023/06/18 02:07:16;;;;;;;26.87;21.33;;;18.00;99.90;;;;;;4958682;28;20315;-86
2023/06/18 02:09:43;;;;;;;29.07;21.30;;;18.00;99.90;;;;;;4991113;28;20221;-86
2023/06/18 02:12:11;;;;;;;26.87;21.03;;;18.00;99.90;;;;;;4974857;28;20205;-86
2023/06/18 02:14:39;;;;;;;25.87;21.63;;;18.00;99.90;;;;;;4974778;28;20224;-87
2023/06/18 02:17:05;;;;;;;26.80;21.87;;;18.00;99.90;;;;;;4991204;28;20684;-86
2023/06/18 02:19:32;;;;;;;27.53;21.43;;;18.00;99.90;;;;;;5013722;28;20200;-86
2023/06/18 02:21:59;;;;;;;26.57;20.77;;;18.00;99.90;;;;;;5015033;28;20200;-85
2023/06/18 02:24:26;;;;;;;27.90;21.23;;;18.00;99.90;;;;;;5032419;28;20190;-85
2023/06/18 02:26:53;;;;;;;26.97;21.40;;;18.00;99.90;;;;;;5031225;28;20659;-85
2023/06/18 02:29:20;;;;;;;26.37;20.83;;;18.00;99.90;;;;;;5031462;28;20214;-87
2023/06/18 02:31:47;;;;;;;27.67;21.43;;;18.00;99.90;;;;;;5032538;28;20214;-85
2023/06/18 02:34:15;;;;;;;27.87;20.77;;;18.00;99.90;;;;;;5032281;28;20219;-85
2023/06/18 02:36:42;;;;;;;28.87;22.13;;;18.00;99.90;;;;;;5014763;28;20211;-85
2023/06/18 02:39:09;;;;;;;27.87;21.10;;;18.10;99.90;;;;;;5014873;28;20222;-85
2023/06/18 02:41:36;;;;;;;26.30;20.73;;;18.10;99.90;;;;;;5014745;28;20745;-86
2023/06/18 02:44:04;;;;;;;26.50;20.57;;;18.00;99.90;;;;;;5014756;28;20237;-85
2023/06/18 02:46:31;;;;;;;26.03;21.20;;;18.00;99.90;;;;;;5030705;28;20253;-86
2023/06/18 02:48:58;;;;;;;28.03;20.90;;;18.00;99.90;;;;;;5030705;28;20199;-86
2023/06/18 02:51:25;;;;;;;28.00;21.97;;;18.00;99.90;;;;;;5030998;28;20238;-85
2023/06/18 02:53:52;;;;;;;26.23;20.23;;;18.00;99.90;;;;;;5030838;28;20718;-84
2023/06/18 02:56:19;;;;;;;27.90;21.70;;;18.00;99.90;;;;;;5014452;28;20251;-84
2023/06/18 02:58:49;;;;;;;26.70;20.63;;;18.10;99.90;;;;;;5030810;28;20681;-84
2023/06/18 03:01:19;;;;;;;25.20;20.53;;;18.10;99.90;;;;;;5030860;28;20214;-84
2023/06/18 03:03:46;;;;;;;25.60;19.40;;;18.10;99.90;;;;;;5030696;28;20199;-85
2023/06/18 03:06:13;;;;;;;25.40;20.20;;;18.10;99.90;;;;;;5030907;28;20265;-85
2023/06/18 03:08:40;;;;;;;30.73;23.17;;;18.20;99.90;;;;;;5031787;28;20293;-84
2023/06/18 03:11:07;;;;;;;28.73;22.57;;;18.10;99.90;;;;;;5030566;28;20215;-83
2023/06/18 03:13:34;;;;;;;33.07;25.57;;;18.20;99.90;;;;;;5014211;28;20205;-84
2023/06/18 03:16:01;;;;;;;33.63;24.33;;;18.20;99.90;;;;;;5031625;28;20309;-84
2023/06/18 03:18:28;;;;;;;34.07;24.57;;;18.20;99.90;;;;;;5032129;28;20223;-84
2023/06/18 03:20:55;;;;;;;28.53;23.33;;;18.10;99.90;;;;;;5030607;28;20310;-83
2023/06/18 03:23:22;;;;;;;30.17;23.90;;;18.20;99.90;;;;;;5030673;28;20290;-84
2023/06/18 03:25:49;;;;;;;31.43;23.07;;;18.20;99.90;;;;;;5014280;28;20238;-84
2023/06/18 03:28:17;;;;;;;28.20;22.63;;;18.20;99.90;;;;;;5030799;28;20206;-84
2023/06/18 03:30:44;;;;;;;26.20;20.50;;;18.20;99.90;;;;;;5031719;28;20215;-84
2023/06/18 03:33:11;;;;;;;27.70;20.90;;;18.20;99.90;;;;;;5030528;28;20625;-84
2023/06/18 03:35:38;;;;;;;28.43;21.10;;;18.20;99.90;;;;;;5031545;28;20269;-84
2023/06/18 03:38:05;;;;;;;26.73;21.67;;;18.30;99.90;;;;;;5031689;28;20557;-86
2023/06/18 03:40:32;;;;;;;28.20;21.27;;;18.30;99.90;;;;;;5030578;28;20309;-84
2023/06/18 03:42:59;;;;;;;30.23;22.60;;;18.40;99.90;;;;;;5030413;28;20187;-83
2023/06/18 03:45:26;;;;;;;29.57;22.63;;;18.40;99.90;;;;;;5033622;28;20218;-83
2023/06/18 03:47:53;;;;;;;30.10;23.93;;;18.40;99.90;;;;;;5019352;28;20230;-85
2023/06/18 03:50:20;;;;;;;33.10;23.90;;;18.40;99.90;;;;;;5019166;28;20258;-84
2023/06/18 03:52:48;;;;;;;29.50;23.03;;;18.40;99.90;;;;;;5035568;28;20298;-84
2023/06/18 03:55:15;;;;;;;27.90;22.33;;;18.40;99.90;;;;;;5019023;28;20227;-85
2023/06/18 03:57:42;;;;;;;28.87;22.10;;;18.50;99.90;;;;;;5039161;28;20211;-84
2023/06/18 04:00:10;;;;;;;30.23;21.77;;;18.50;99.90;;;;;;5039433;28;20565;-85
2023/06/18 04:02:37;;;;;;;30.17;22.60;;;18.60;99.90;;;;;;5036529;28;20290;-84
2023/06/18 04:05:04;;;;;;;29.87;23.47;;;18.60;99.90;;;;;;5033799;28;20250;-85
2023/06/18 04:07:32;;;;;;;29.87;23.63;;;18.60;99.90;;;;;;5033726;28;20698;-85
2023/06/18 04:09:59;;;;;;;33.93;25.97;;;18.70;99.90;;;;;;5035431;28;20216;-85
2023/06/18 04:12:27;;;;;;;34.63;26.63;;;18.80;99.90;;;;;;5033763;28;20222;-84
2023/06/18 04:14:54;;;;;;;33.77;26.97;;;18.80;99.90;;;;;;5034898;28;20318;-84
2023/06/18 04:17:21;;;;;;;32.80;26.30;;;18.80;99.90;;;;;;5033790;28;20183;-85
2023/06/18 04:19:48;;;;;;;34.03;26.60;;;18.70;99.90;;;;;;5033476;28;20589;-85
2023/06/18 04:22:15;;;;;;;33.90;25.97;;;18.80;99.90;;;;;;5035066;28;20195;-85
2023/06/18 04:24:42;;;;;;;31.87;25.00;;;18.80;99.90;;;;;;5033730;28;20265;-85
2023/06/18 04:27:09;;;;;;;32.80;25.30;;;18.80;99.90;;;;;;5033775;28;20213;-84
2023/06/18 04:29:36;;;;;;;34.17;25.13;;;18.90;99.90;;;;;;5016766;28;20206;-85
2023/06/18 04:32:04;;;;;;;30.23;23.73;;;18.90;99.90;;;;;;5033408;28;20231;-84
2023/06/18 04:34:30;;;;;;;30.30;23.37;;;18.80;99.90;;;;;;5016772;28;20304;-85
2023/06/18 04:36:57;;;;;;;31.67;24.17;;;18.90;99.90;;;;;;5033629;28;20199;-86
2023/06/18 04:39:24;;;;;;;30.70;23.77;;;18.90;99.90;;;;;;5017081;28;20622;-86
2023/06/18 04:41:51;;;;;;;32.63;25.80;;;18.90;99.90;;;;;;5034822;28;20211;-86
2023/06/18 04:44:18;;;;;;;31.43;25.30;;;19.00;99.90;;;;;;5033558;28;20191;-85
2023/06/18 04:46:45;;;;;;;33.47;25.37;;;19.00;99.90;;;;;;5033395;28;20247;-86
2023/06/18 04:49:14;;;;;;;30.17;24.30;;;19.00;99.90;;;;;;5033206;28;20204;-86
2023/06/18 04:51:43;;;;;;;32.50;25.07;;;18.80;99.90;;;;;;5017082;28;20223;-86
2023/06/18 04:54:11;;;;;;;30.80;24.37;;;18.80;99.90;;;;;;5033152;28;20183;-86
2023/06/18 04:56:38;;;;;;;32.50;24.63;;;18.60;99.90;;;;;;5033045;28;20298;-86
2023/06/18 04:59:06;;;;;;;30.57;24.07;;;18.60;99.90;;;;;;5033714;28;20590;-87
2023/06/18 05:01:33;;;;;;;30.60;24.20;;;18.60;99.90;;;;;;5033343;28;20625;-86
2023/06/18 05:04:00;;;;;;;30.10;23.93;;;18.50;99.90;;;;;;5017010;28;20223;-86
2023/06/18 05:06:27;;;;;;;32.47;24.63;;;18.40;99.90;;;;;;5017305;28;20250;-87
2023/06/18 05:08:54;;;;;;;34.03;23.93;;;18.40;99.90;;;;;;5033807;28;20187;-87
2023/06/18 05:11:21;;;;;;;30.70;23.33;;;18.40;99.90;;;;;;5017063;28;20258;-86
2023/06/18 05:13:48;;;;;;;30.03;22.20;;;18.40;99.90;;;;;;5034387;28;20440;-86
2023/06/18 05:16:15;;;;;;;32.03;22.83;;;18.50;99.90;;;;;;5034421;28;20219;-86
2023/06/18 05:18:42;;;;;;;32.40;22.83;;;18.60;99.90;;;;;;5033132;28;20198;-86
2023/06/18 05:21:09;;;;;;;29.23;22.50;;;18.80;99.90;;;;;;5032496;28;20216;-86
2023/06/18 05:23:36;;;;;;;30.43;23.10;;;18.90;99.90;;;;;;5034045;28;20192;-87
2023/06/18 05:26:03;;;;;;;29.73;22.63;;;19.00;99.90;;;;;;5032558;28;20311;-87
2023/06/18 05:28:30;;;;;;;30.80;23.67;;;19.00;99.90;;;;;;5016479;28;20622;-86
2023/06/18 05:30:57;;;;;;;29.20;22.23;;;19.10;99.90;;;;;;5016389;28;20218;-86
2023/06/18 05:33:24;;;;;;;28.60;22.13;;;19.20;99.90;;;;;;5032678;28;20242;-86
2023/06/18 05:35:51;;;;;;;26.33;20.90;;;19.10;99.90;;;;;;5016077;28;20250;-86
2023/06/18 05:38:18;;;;;;;29.67;20.87;;;19.20;99.90;;;;;;5032673;28;20245;-86
2023/06/18 05:40:44;;;;;;;27.70;21.63;;;19.30;99.90;;;;;;5016166;28;20307;-86
2023/06/18 05:43:11;;;;;;;26.93;22.00;;;19.40;99.90;;;;;;5032541;28;20253;-85
2023/06/18 05:45:38;;;;;;;26.17;21.20;;;19.60;99.90;;;;;;5033651;28;20616;-85
2023/06/18 05:48:08;;;;;;;26.23;20.70;;;19.60;99.90;;;;;;5032399;28;20188;-85
2023/06/18 05:50:35;;;;;;;25.63;20.47;;;19.70;99.90;;;;;;5015681;28;20251;-85
2023/06/18 05:53:02;;;;;;;25.93;20.77;;;19.70;99.90;;;;;;5032068;28;20622;-86
2023/06/18 05:55:28;;;;;;;27.97;20.67;;;19.80;99.90;;;;;;5033388;28;20227;-86
2023/06/18 05:57:55;;;;;;;27.37;21.00;;;19.80;99.90;;;;;;5031950;28;20691;-85
2023/06/18 06:00:22;;;;;;;25.07;20.70;;;19.90;99.90;;;;;;5031971;28;20208;-85
2023/06/18 06:02:50;;;;;;;26.87;20.43;;;20.00;99.90;;;;;;5033338;28;20281;-85
2023/06/18 06:05:18;;;;;;;28.43;21.63;;;20.10;99.90;;;;;;5031789;28;20250;-84
2023/06/18 06:07:45;;;;;;;27.23;21.00;;;20.10;99.90;;;;;;5032191;28;20780;-85
2023/06/18 06:10:16;;;;;;;28.63;20.83;;;20.20;99.90;;;;;;5032024;28;20281;-85
2023/06/18 06:12:43;;;;;;;26.40;20.57;;;20.30;99.90;;;;;;5031896;28;20188;-86
2023/06/18 06:15:10;;;;;;;26.97;20.23;;;20.40;99.90;;;;;;5015097;28;20231;-85
2023/06/18 06:17:37;;;;;;;29.30;22.50;;;20.50;99.90;;;;;;5015297;28;20213;-85
2023/06/18 06:20:05;;;;;;;26.37;21.00;;;20.40;99.90;;;;;;5031027;28;20283;-85
2023/06/18 06:22:32;;;;;;;27.37;20.63;;;20.50;99.90;;;;;;5031716;28;20257;-84
2023/06/18 06:24:59;;;;;;;27.13;20.67;;;20.50;99.90;;;;;;5014709;28;20227;-85
2023/06/18 06:27:26;;;;;;;26.13;20.33;;;20.50;99.90;;;;;;5032669;28;20191;-85
2023/06/18 06:29:53;;;;;;;25.93;20.93;;;20.50;99.90;;;;;;5031304;28;20243;-85
2023/06/18 06:32:20;;;;;;;25.43;19.43;;;20.60;99.90;;;;;;5032819;28;20191;-85
2023/06/18 06:34:48;;;;;;;27.90;19.73;;;20.60;99.90;;;;;;5014747;28;20305;-84
2023/06/18 06:37:15;;;;;;;26.00;20.03;;;20.70;99.90;;;;;;5031469;28;20246;-84
2023/06/18 06:39:42;;;;;;;24.27;19.23;;;20.60;99.90;;;;;;5031260;28;20265;-85
2023/06/18 06:42:10;;;;;;;23.37;17.70;;;20.70;99.90;;;;;;5032862;28;20191;-86
2023/06/18 06:44:38;;;;;;;26.53;20.70;;;20.80;99.90;;;;;;5014855;28;20220;-84
2023/06/18 06:47:05;;;;;;;24.90;19.80;;;20.90;99.90;;;;;;5031264;28;20218;-85
2023/06/18 06:49:32;;;;;;;26.80;20.20;;;20.90;99.90;;;;;;5031186;28;20196;-84
2023/06/18 06:51:59;;;;;;;27.13;19.80;;;21.00;99.90;;;;;;5031160;28;20199;-84
2023/06/18 06:54:26;;;;;;;25.07;18.30;;;21.10;99.90;;;;;;5032438;28;20603;-85
2023/06/18 06:56:53;;;;;;;24.80;18.67;;;21.10;99.90;;;;;;5031028;28;20710;-85
2023/06/18 06:59:20;;;;;;;24.33;18.23;;;21.20;99.90;;;;;;5031275;28;20227;-85
2023/06/18 07:01:47;;;;;;;24.50;18.27;;;21.30;99.90;;;;;;5030934;28;20216;-85
2023/06/18 07:04:14;;;;;;;22.20;17.37;;;21.30;99.90;;;;;;5014903;28;20245;-86
2023/06/18 07:06:41;;;;;;;25.13;18.37;;;21.50;99.90;;;;;;5014512;28;20247;-85
2023/06/18 07:09:08;;;;;;;23.67;18.50;;;21.70;99.90;;;;;;5015044;28;20206;-85
2023/06/18 07:11:40;;;;;;;27.93;19.37;;;21.70;99.90;;;;;;5032658;28;20589;-85
2023/06/18 07:14:07;;;;;;;27.53;20.30;;;21.90;99.90;;;;;;5014839;28;20203;-86
2023/06/18 07:16:34;;;;;;;23.10;18.17;;;22.00;99.90;;;;;;5014905;28;20219;-83
2023/06/18 07:19:01;;;;;;;39.83;18.97;;;22.10;99.90;;;;;;5030984;28;20191;-84
2023/06/18 07:21:28;;;;;;;23.40;18.57;;;22.30;99.90;;;;;;5031101;28;20223;-84
2023/06/18 07:23:55;;;;;;;25.97;19.97;;;22.40;99.90;;;;;;5032611;28;20191;-85
2023/06/18 07:26:22;;;;;;;26.77;20.47;;;22.30;99.90;;;;;;5032056;28;20218;-85
2023/06/18 07:28:49;;;;;;;31.47;20.43;;;22.50;99.90;;;;;;5031011;28;20187;-86
2023/06/18 07:31:16;;;;;;;36.63;20.37;;;22.40;99.90;;;;;;5032221;28;20273;-86
2023/06/18 07:33:43;;;;;;;25.87;18.50;;;22.30;99.90;;;;;;5035069;28;20187;-85
2023/06/18 07:36:10;;;;;;;24.90;18.63;;;22.30;99.90;;;;;;5018477;28;20219;-87
2023/06/18 07:38:37;;;;;;;25.60;18.77;;;22.30;99.90;;;;;;5034787;28;20196;-84
2023/06/18 07:41:04;;;;;;;30.17;18.87;;;22.50;99.90;;;;;;5034786;28;20239;-84
2023/06/18 07:43:31;;;;;;;31.37;18.87;;;22.60;99.90;;;;;;5018280;28;20199;-84
2023/06/18 07:45:58;;;;;;;23.87;18.63;;;22.70;99.90;;;;;;5018190;28;20633;-84
2023/06/18 07:48:25;;;;;;;25.57;17.93;;;22.80;99.90;;;;;;5018232;28;20198;-84
2023/06/18 07:50:52;;;;;;;30.27;18.03;;;22.90;99.90;;;;;;5034381;28;20589;-84
2023/06/18 07:53:19;;;;;;;22.43;16.77;;;23.10;99.90;;;;;;5034533;28;20222;-85
2023/06/18 07:55:46;;;;;;;21.87;16.30;;;23.30;99.90;;;;;;5034332;28;20595;-84
2023/06/18 07:58:13;;;;;;;18.88;15.70;;;23.40;99.90;;;;;;5034395;28;20200;-84
2023/06/18 08:00:40;;;;;;;20.40;16.00;;;23.60;99.90;;;;;;5034212;28;20219;-85
2023/06/18 08:03:07;;;;;;;21.70;16.03;;;23.60;99.90;;;;;;5034434;28;20188;-85
2023/06/18 08:05:34;;;;;;;23.13;15.60;;;23.70;99.90;;;;;;5035672;28;20270;-84
2023/06/18 08:08:01;;;;;;;20.27;15.30;;;23.90;99.90;;;;;;5034046;28;20330;-84
2023/06/18 08:10:28;;;;;;;19.73;15.00;;;24.00;99.90;;;;;;5017597;28;20247;-84
2023/06/18 08:12:55;;;;;;;14.87;12.90;;;24.00;99.90;;;;;;5034277;28;20282;-85
2023/06/18 08:15:22;;;;;;;19.92;13.73;;;24.10;99.90;;;;;;5017446;28;20223;-84
2023/06/18 08:17:50;;;;;;;24.95;17.70;;;24.20;99.90;;;;;;5034164;28;20245;-85
2023/06/18 08:20:17;;;;;;;20.90;16.63;;;24.10;99.90;;;;;;5033905;28;20218;-85
2023/06/18 08:22:44;;;;;;;24.17;15.85;;;24.00;99.90;;;;;;5017582;28;20282;-83
2023/06/18 08:25:11;;;;;;;19.10;14.73;;;24.00;99.90;;;;;;5033990;28;20216;-86
2023/06/18 08:27:38;;;;;;;20.98;14.02;;;23.90;99.90;;;;;;5017620;28;20232;-86
2023/06/18 08:30:06;;;;;;;16.30;13.20;;;23.90;99.90;;;;;;5033523;28;20250;-85
2023/06/18 08:32:33;;;;;;;16.33;13.20;;;23.80;99.90;;;;;;5035040;28;20222;-85
2023/06/18 08:35:01;;;;;;;16.48;13.10;;;23.70;99.90;;;;;;5017087;28;20212;-85
2023/06/18 08:37:28;;;;;;;19.08;13.35;;;23.50;99.90;;;;;;5016441;28;20203;-85
2023/06/18 08:39:55;;;;;;;20.05;13.57;;;23.60;99.90;;;;;;5032793;28;20269;-84
2023/06/18 08:42:22;;;;;;;14.20;12.15;;;23.50;99.90;;;;;;5032418;28;20223;-85
2023/06/18 08:44:50;;;;;;;15.52;12.18;;;23.50;99.90;;;;;;5032562;28;20253;-84
2023/06/18 08:47:20;;;;;;;14.80;12.67;;;23.40;99.90;;;;;;5016451;28;20200;-84
2023/06/18 08:49:50;;;;;;;15.80;12.70;;;23.40;99.90;;;;;;5032377;28;20562;-84
2023/06/18 08:52:20;;;;;;;20.63;14.43;;;23.30;99.90;;;;;;5032399;28;20574;-85
2023/06/18 08:54:51;;;;;;;22.37;15.33;;;23.10;99.90;;;;;;5015949;28;20224;-84
2023/06/18 08:57:54;;;;;;;19.87;15.80;;;23.00;99.90;;;;;;5032330;28;20319;-84
2023/06/18 09:00:22;;;;;;;19.50;15.67;;;22.70;99.90;;;;;;4975900;28;20216;-85
2023/06/18 09:02:52;;;;;;;19.37;15.93;;;22.50;99.90;;;;;;4975990;28;20197;-86
2023/06/18 09:05:20;;;;;;;18.10;14.67;;;22.20;99.90;;;;;;4976774;28;20213;-85
2023/06/18 09:07:48;;;;;;;19.30;15.07;;;21.80;99.90;;;;;;4960421;28;20232;-83
2023/06/18 09:10:17;;;;;;;20.27;15.17;;;21.50;99.90;;;;;;4977594;28;20336;-84
2023/06/18 09:12:44;;;;;;;17.33;13.93;;;21.30;99.90;;;;;;4964128;28;20197;-84
2023/06/18 09:15:11;;;;;;;22.23;17.00;;;21.20;99.90;;;;;;4978267;28;20220;-86
2023/06/18 09:17:40;;;;;;;21.00;15.50;;;21.20;99.90;;;;;;4977755;28;20200;-85
2023/06/18 09:20:12;;;;;;;25.67;16.23;;;21.10;99.90;;;;;;4977169;28;20261;-86
2023/06/18 09:22:45;;;;;;;19.10;15.70;;;21.00;99.90;;;;;;4976244;28;20205;-85
2023/06/18 09:25:21;;;;;;;22.00;17.67;;;20.90;99.90;;;;;;4961979;28;20265;-85
2023/06/18 09:27:49;;;;;;;18.67;15.07;;;20.80;99.90;;;;;;4977652;28;20204;-84
2023/06/18 09:30:25;;;;;;;14.67;12.47;;;20.60;99.90;;;;;;4992510;28;20225;-84
2023/06/18 09:32:53;;;;;;;15.67;11.80;;;20.40;99.90;;;;;;4976004;28;20263;-83
2023/06/18 09:35:20;;;;;;;13.43;11.00;;;20.20;99.90;;;;;;4971179;28;20220;-85
2023/06/18 09:37:47;;;;;;;12.53;10.70;;;20.30;99.90;;;;;;5016178;28;20226;-85
2023/06/18 09:40:19;;;;;;;13.57;11.53;;;20.40;99.90;;;;;;5032752;28;20277;-84
2023/06/18 09:42:50;;;;;;;13.07;10.47;;;20.40;99.90;;;;;;5032665;28;20191;-85
2023/06/18 09:45:18;;;;;;;13.40;11.00;;;20.10;99.90;;;;;;5015614;28;20318;-85
2023/06/18 09:47:47;;;;;;;14.63;10.73;;;20.00;99.90;;;;;;5034030;28;20187;-83
2023/06/18 09:50:14;;;;;;;10.77;9.03;;;19.80;99.90;;;;;;5032240;28;20314;-85
2023/06/18 09:52:46;;;;;;;11.93;9.03;;;19.70;99.90;;;;;;5015743;28;20226;-83
2023/06/18 09:55:31;;;;;;;10.00;8.90;;;19.50;99.90;;;;;;5031454;28;20219;-83
2023/06/18 09:57:59;;;;;;;9.80;8.37;;;19.60;99.90;;;;;;5048509;28;20287;-83
2023/06/18 10:00:27;;;;;;;10.93;8.73;;;19.60;99.90;;;;;;5032175;28;20223;-84
2023/06/18 10:03:04;;;;;;;10.07;7.80;;;19.50;99.90;;;;;;5015478;28;20231;-84
2023/06/18 10:05:32;;;;;;;9.77;8.33;;;19.40;99.90;;;;;;5031775;28;20219;-84
2023/06/18 10:08:01;;;;;;;11.00;8.20;;;19.30;99.90;;;;;;5031432;28;20267;-83
2023/06/18 10:10:34;;;;;;;10.23;7.83;;;19.30;99.90;;;;;;5048077;28;20345;-84
2023/06/18 10:13:07;;;;;;;9.23;7.67;;;19.20;99.90;;;;;;5033369;28;20632;-83
2023/06/18 10:15:36;;;;;;;10.93;8.80;;;19.20;99.90;;;;;;5048178;28;20211;-84
2023/06/18 10:18:06;;;;;;;10.47;8.70;;;19.30;99.90;;;;;;5032995;28;20237;-84
2023/06/18 10:20:34;;;;;;;10.47;8.80;;;19.10;99.90;;;;;;5048156;28;20413;-85
2023/06/18 10:23:06;;;;;;;12.60;9.77;;;19.20;99.90;;;;;;5033076;28;20529;-84
2023/06/18 10:25:34;;;;;;;9.53;8.40;;;19.20;99.90;;;;;;5031497;28;20270;-84
2023/06/18 10:28:01;;;;;;;11.87;8.97;;;19.20;99.90;;;;;;5031440;28;20266;-84
2023/06/18 10:30:29;;;;;;;10.27;8.63;;;19.20;99.90;;;;;;5032535;28;20215;-83
2023/06/18 10:32:56;;;;;;;14.00;10.27;;;19.10;99.90;;;;;;5032799;28;20737;-83
2023/06/18 10:35:23;;;;;;;15.93;11.13;;;19.20;99.90;;;;;;5031501;28;20216;-83
2023/06/18 10:37:51;;;;;;;12.13;8.63;;;19.00;99.90;;;;;;5031375;28;20263;-84
2023/06/18 10:40:19;;;;;;;11.43;9.27;;;18.80;99.90;;;;;;5047529;28;20687;-83
2023/06/18 10:42:50;;;;;;;14.97;10.33;;;18.80;99.90;;;;;;5032439;28;20712;-83
2023/06/18 10:45:18;;;;;;;14.27;10.33;;;18.70;99.90;;;;;;5015081;28;20227;-83
2023/06/18 10:47:46;;;;;;;12.87;10.40;;;18.70;99.90;;;;;;5031139;28;20282;-83
2023/06/18 10:50:16;;;;;;;13.53;10.47;;;18.70;99.90;;;;;;5014721;28;20314;-83
2023/06/18 10:52:49;;;;;;;13.17;10.63;;;18.70;99.90;;;;;;5032377;28;20176;-82
2023/06/18 10:55:26;;;;;;;14.37;10.17;;;18.70;99.90;;;;;;5031046;28;20226;-83
2023/06/18 10:58:02;;;;;;;14.13;11.07;;;18.70;99.90;;;;;;5030907;28;20246;-84
2023/06/18 11:00:41;;;;;;;13.60;10.90;;;18.70;99.90;;;;;;5031111;28;20219;-85
2023/06/18 11:03:13;;;;;;;15.17;11.80;;;18.80;99.90;;;;;;5031183;28;20210;-83
2023/06/18 11:05:51;;;;;;;13.27;10.70;;;18.70;99.90;;;;;;5016386;28;20261;-83
2023/06/18 11:08:29;;;;;;;12.77;10.07;;;18.70;99.90;;;;;;5021276;28;20230;-83
2023/06/18 11:11:12;;;;;;;16.63;10.47;;;18.90;99.90;;;;;;5038865;28;20211;-84
2023/06/18 11:13:41;;;;;;;13.13;9.47;;;18.90;99.90;;;;;;5037739;28;20555;-84
2023/06/18 11:16:11;;;;;;;10.17;8.07;;;19.00;99.90;;;;;;5037871;28;20266;-83
2023/06/18 11:18:43;;;;;;;10.13;7.57;;;19.00;99.90;;;;;;5054251;28;20722;-83
2023/06/18 11:21:19;;;;;;;16.73;8.20;;;19.00;99.90;;;;;;5037566;28;20296;-83
2023/06/18 11:23:47;;;;;;;9.57;7.30;;;19.00;99.90;;;;;;5038800;28;20191;-84
2023/06/18 11:26:16;;;;;;;7.63;6.73;;;19.00;99.90;;;;;;5037370;28;20254;-85
2023/06/18 11:28:43;;;;;;;10.43;7.33;;;19.00;99.90;;;;;;5054014;28;20190;-84
2023/06/18 11:31:10;;;;;;;10.00;7.27;;;18.90;99.90;;;;;;5037416;28;20749;-82
2023/06/18 11:33:38;;;;;;;8.33;6.87;;;18.80;99.90;;;;;;5053949;28;20192;-83
2023/06/18 11:36:13;;;;;;;8.93;7.23;;;18.80;99.90;;;;;;5020845;28;20269;-83
2023/06/18 11:38:45;;;;;;;9.80;6.97;;;18.80;99.90;;;;;;5038711;28;20218;-82
2023/06/18 11:41:20;;;;;;;9.43;7.13;;;18.60;99.90;;;;;;5037312;28;20690;-82
2023/06/18 11:43:50;;;;;;;8.93;7.20;;;18.60;99.90;;;;;;5037353;28;20768;-83
2023/06/18 11:46:35;;;;;;;8.60;7.33;;;18.70;99.90;;;;;;5037127;28;20227;-84
2023/06/18 11:49:03;;;;;;;8.70;7.30;;;18.70;99.90;;;;;;5038744;28;20673;-83
2023/06/18 11:51:30;;;;;;;9.43;7.20;;;18.70;99.90;;;;;;5036969;28;20249;-84
2023/06/18 11:53:59;;;;;;;8.57;7.40;;;18.70;99.90;;;;;;5037010;28;20556;-82
2023/06/18 11:56:29;;;;;;;8.53;6.70;;;18.70;99.90;;;;;;5038117;28;20219;-82
2023/06/18 11:58:57;;;;;;;8.30;7.27;;;18.80;99.90;;;;;;5037376;28;20628;-83
2023/06/18 12:01:29;;;;;;;9.83;7.47;;;18.80;99.90;;;;;;5053704;28;20305;-83
2023/06/18 12:04:07;;;;;;;10.73;7.27;;;18.90;99.90;;;;;;5053628;28;20191;-83
2023/06/18 12:06:36;;;;;;;9.83;7.70;;;18.90;99.90;;;;;;5038258;28;20302;-84
2023/06/18 12:09:12;;;;;;;9.57;7.57;;;18.60;99.90;;;;;;5053827;28;20253;-83
2023/06/18 12:12:04;;;;;;;8.77;7.20;;;18.50;99.90;;;;;;5036990;28;20246;-82
2023/06/18 12:14:39;;;;;;;11.43;7.80;;;18.50;99.90;;;;;;5036926;28;20278;-83
2023/06/18 12:17:28;;;;;;;11.07;7.93;;;18.40;99.90;;;;;;5037200;28;20199;-84
2023/06/18 12:19:59;;;;;;;10.87;8.37;;;18.30;99.90;;;;;;5034393;28;20251;-82
2023/06/18 12:22:27;;;;;;;9.30;7.73;;;18.20;99.90;;;;;;5035365;28;20642;-84
2023/06/18 12:24:55;;;;;;;10.40;7.97;;;18.10;99.90;;;;;;5050590;28;20262;-84
2023/06/18 12:27:25;;;;;;;11.30;8.53;;;18.20;99.90;;;;;;5033894;28;20199;-83
2023/06/18 12:29:57;;;;;;;10.00;7.93;;;18.30;99.90;;;;;;5017446;28;20779;-84
2023/06/18 12:32:24;;;;;;;10.90;8.73;;;18.40;99.90;;;;;;5033526;28;20192;-84
2023/06/18 12:34:51;;;;;;;10.63;8.30;;;18.40;99.90;;;;;;5033832;28;20219;-85
2023/06/18 12:37:18;;;;;;;10.97;8.57;;;18.40;99.90;;;;;;5016998;28;20231;-84